Portada
METAR-TAF:

METAR-TAF

Aeroports :

Columbia, Missouri, Estats Units d'Amèrica

latitud: 38-49-01N, longitud: 092-13-06W, altitud: 271 m

Observació

L'informe es va fer fa 18 minuts, a les 02:54 UTC
Vent 6 kt del Sud/Sud-Est
Temperatura 29°C
Humitat 70%
Pressió 1011 hPa
Visibilitat: 16.1 km
Cel clar

METAR: KCOU 250254Z AUTO 16006KT 10SM CLR 29/23 A2986 RMK AO2 SLP100 T02940233 53001 $

Hora: 22:12 (03:12 UTC)

Pronòstic

L'informe es va fer fa 3 hores i 52 minuts, a les 23:20 UTC
Pronòstic vàlid del 25 a les 00 UTC al 25 a les 24 UTC
Vent 9 kt del Sud/Sud-Oest
Visibilitat: 10 km
Cel clar
A partir de les 25 a les 1400 UTC
Vent 9 kt del Oest/Sud-Oest
Visibilitat: 10 km
Núvols disperses a una alçada de 25000 ft

TAF: KCOU 242320Z 2500/2524 20009KT P6SM SKC FM251400 24009KT P6SM SCT250

Observacions i pronòstics meteorològics de més de 4000 aeroports (METAR i TAF).

Les estacions disponibles són els punts grocs i vermells al mapa.

Posi el ratolí al punt desitjat per veure el nom de l'estació.

Feu clic per veure les observacions i els pronòstics meteorològics.

Per canviar el mapa: feu clic els botons verds amb una creu de color negre per apropar; al botó verd amb un guió per allunyar la imatge; o en les fletxes verdes per a mapes adjacents.


METAR-TAF: